createdAt,value
2022-11-05T00:02:52.746Z,78.80
2022-11-05T00:06:52.701Z,78.60
2022-11-05T00:10:36.046Z,78.40
2022-11-05T00:14:36.103Z,78.80
2022-11-05T00:18:17.982Z,78.40
2022-11-05T00:22:19.429Z,78.30
2022-11-05T00:26:02.594Z,78.20
2022-11-05T00:29:44.286Z,78.20
2022-11-05T00:33:27.337Z,78.00
2022-11-05T00:37:09.073Z,78.00
2022-11-05T00:40:52.885Z,78.00
2022-11-05T00:44:53.221Z,77.90
2022-11-05T00:48:53.651Z,78.40
2022-11-05T00:52:53.878Z,77.80
2022-11-05T00:56:35.565Z,78.10
2022-11-05T01:00:17.568Z,78.20
2022-11-05T01:03:59.277Z,78.30
2022-11-05T01:07:41.009Z,78.60
2022-11-05T01:11:36.967Z,78.50
2022-11-05T01:15:19.340Z,78.60
2022-11-05T01:19:01.840Z,78.80
2022-11-05T01:22:45.829Z,79.00
2022-11-05T01:26:27.597Z,79.00
2022-11-05T01:30:09.840Z,79.00
2022-11-05T01:33:52.761Z,79.00
2022-11-05T01:37:35.015Z,79.10
2022-11-05T01:41:16.960Z,79.20
2022-11-05T01:45:23.077Z,79.10
2022-11-05T01:49:28.308Z,79.00
2022-11-05T01:53:14.233Z,79.30
2022-11-05T01:57:03.833Z,79.40
2022-11-05T02:00:45.509Z,79.50
2022-11-05T02:04:41.984Z,79.20
2022-11-05T02:08:46.463Z,79.40
2022-11-05T02:12:29.213Z,79.10
2022-11-05T02:16:22.862Z,79.10
2022-11-05T02:20:29.048Z,79.30
2022-11-05T02:24:31.234Z,79.50
2022-11-05T02:28:23.062Z,79.40
2022-11-05T02:32:25.653Z,79.70
2022-11-05T02:36:14.967Z,80.10
2022-11-05T02:40:02.923Z,79.70
2022-11-05T02:43:58.555Z,80.40
2022-11-05T02:47:45.643Z,80.10
2022-11-05T02:51:54.520Z,80.20
2022-11-05T02:55:53.989Z,80.10
2022-11-05T02:59:35.660Z,80.40
2022-11-05T03:03:24.797Z,80.20
2022-11-05T03:07:22.345Z,80.40
2022-11-05T03:11:17.952Z,80.50
2022-11-05T03:15:08.489Z,80.40
2022-11-05T03:19:10.272Z,80.40
2022-11-05T03:23:15.728Z,80.50
2022-11-05T03:27:05.824Z,81.10
2022-11-05T03:30:47.530Z,80.60
2022-11-05T03:34:36.946Z,80.90
2022-11-05T03:38:27.597Z,81.10
2022-11-05T03:42:11.717Z,81.20
2022-11-05T03:45:57.598Z,81.30
2022-11-05T03:49:41.042Z,81.30
2022-11-05T03:53:29.467Z,81.10
2022-11-05T03:57:16.262Z,81.20
2022-11-05T04:01:00.192Z,81.10
2022-11-05T04:04:41.966Z,81.20
2022-11-05T04:08:42.084Z,81.70
2022-11-05T04:12:43.379Z,81.90
2022-11-05T04:16:43.717Z,82.30
2022-11-05T04:20:44.376Z,82.60
2022-11-05T04:24:26.045Z,82.90
2022-11-05T04:28:07.718Z,83.20
2022-11-05T04:31:49.840Z,83.40
2022-11-05T04:35:39.240Z,83.60
2022-11-05T04:39:21.032Z,84.30
2022-11-05T04:43:04.935Z,84.20
2022-11-05T04:46:46.623Z,84.40
2022-11-05T04:50:28.346Z,84.50
2022-11-05T04:54:10.233Z,84.40
2022-11-05T04:57:52.274Z,84.40
2022-11-05T05:01:35.168Z,84.60
2022-11-05T05:05:17.024Z,84.70
2022-11-05T05:08:58.697Z,84.40
2022-11-05T05:12:41.469Z,84.60
2022-11-05T05:16:25.115Z,84.60
2022-11-05T05:20:25.607Z,84.70
2022-11-05T05:24:14.702Z,84.50
2022-11-05T05:27:59.425Z,85.10
2022-11-05T05:31:41.661Z,85.20
2022-11-05T05:35:23.334Z,85.20
2022-11-05T05:39:06.702Z,85.30
2022-11-05T05:42:52.838Z,85.60
2022-11-05T05:46:34.552Z,85.70
2022-11-05T05:50:16.315Z,85.90
2022-11-05T05:53:58.543Z,86.10
2022-11-05T05:57:40.224Z,86.20
2022-11-05T06:01:22.044Z,86.30
2022-11-05T06:05:03.897Z,86.30
2022-11-05T06:08:45.592Z,86.30
2022-11-05T06:12:29.517Z,86.30
2022-11-05T06:16:11.396Z,86.50
2022-11-05T06:19:53.058Z,86.30
2022-11-05T06:23:35.627Z,86.50
2022-11-05T06:27:17.292Z,86.60
2022-11-05T06:30:59.203Z,86.90
2022-11-05T06:34:40.861Z,87.20
2022-11-05T06:38:22.612Z,87.40
2022-11-05T06:42:17.985Z,87.70
2022-11-05T06:46:01.629Z,88.00
2022-11-05T06:49:43.309Z,87.80
2022-11-05T06:53:25.033Z,87.60
2022-11-05T06:57:09.564Z,87.70
2022-11-05T07:00:51.484Z,87.80
2022-11-05T07:04:33.470Z,88.10
2022-11-05T07:08:15.545Z,88.30
2022-11-05T07:11:57.421Z,88.40
2022-11-05T07:15:39.163Z,88.70
2022-11-05T07:19:21.146Z,88.80
2022-11-05T07:23:13.573Z,88.90
2022-11-05T07:26:55.506Z,89.60
2022-11-05T07:30:37.376Z,89.70
2022-11-05T07:34:19.111Z,89.10
2022-11-05T07:38:00.828Z,89.30
2022-11-05T07:41:42.557Z,89.40
2022-11-05T07:45:24.724Z,89.40
2022-11-05T07:49:06.408Z,89.50
2022-11-05T07:52:48.934Z,89.50
2022-11-05T07:56:30.605Z,89.60
2022-11-05T08:00:16.759Z,89.60
2022-11-05T08:04:17.271Z,89.70
2022-11-05T08:07:58.948Z,90.10
2022-11-05T08:11:41.912Z,89.70
2022-11-05T08:15:23.986Z,89.90
2022-11-05T08:19:05.749Z,89.80
2022-11-05T08:22:47.571Z,89.90
2022-11-05T08:26:29.293Z,89.90
2022-11-05T08:30:11.339Z,89.90
2022-11-05T08:33:57.128Z,89.90
2022-11-05T08:37:41.454Z,90.00
2022-11-05T08:41:24.372Z,89.80
2022-11-05T08:45:06.528Z,89.90
2022-11-05T08:48:48.249Z,89.80
2022-11-05T08:52:29.968Z,89.60
2022-11-05T08:56:11.645Z,89.50
2022-11-05T08:59:53.328Z,89.50
2022-11-05T09:03:35.127Z,89.30
2022-11-05T09:07:16.883Z,89.20
2022-11-05T09:10:58.682Z,89.10
2022-11-05T09:14:40.367Z,89.20
2022-11-05T09:18:22.102Z,89.10
2022-11-05T09:22:04.060Z,89.00
2022-11-05T09:25:45.806Z,89.10
2022-11-05T09:29:27.502Z,89.60
2022-11-05T09:33:09.690Z,89.00
2022-11-05T09:36:51.697Z,89.00
2022-11-05T09:40:40.193Z,89.10
2022-11-05T09:44:24.036Z,89.20
2022-11-05T09:48:10.406Z,89.10
2022-11-05T09:51:56.267Z,89.10
2022-11-05T09:55:39.933Z,89.10
2022-11-05T09:59:22.610Z,88.90
2022-11-05T10:03:06.856Z,88.70
2022-11-05T10:07:03.164Z,88.70
2022-11-05T10:11:12.829Z,88.60
2022-11-05T10:15:09.521Z,88.30
2022-11-05T10:18:58.889Z,88.40
2022-11-05T10:22:43.967Z,88.00
2022-11-05T10:26:29.957Z,88.20
2022-11-05T10:30:14.790Z,88.30
2022-11-05T10:34:01.036Z,88.50
2022-11-05T10:37:42.686Z,88.50
2022-11-05T10:41:39.584Z,88.60
2022-11-05T10:45:27.068Z,88.70
2022-11-05T10:49:42.997Z,88.70
2022-11-05T10:53:36.457Z,89.10
2022-11-05T10:57:36.283Z,88.50
2022-11-05T11:01:18.238Z,88.40
2022-11-05T11:05:00.059Z,88.30
2022-11-05T11:08:41.746Z,88.50
2022-11-05T11:12:30.321Z,87.70
2022-11-05T11:16:19.196Z,87.90
2022-11-05T11:20:28.403Z,87.90
2022-11-05T11:24:23.434Z,87.90
2022-11-05T11:28:05.618Z,88.00
2022-11-05T11:31:47.471Z,88.00
2022-11-05T11:35:29.352Z,88.20
2022-11-05T11:39:17.501Z,88.20
2022-11-05T11:43:05.033Z,88.20
2022-11-05T11:46:49.820Z,88.40
2022-11-05T11:50:31.468Z,88.30
2022-11-05T11:54:20.670Z,88.10
2022-11-05T11:58:06.644Z,89.30
2022-11-05T12:02:13.588Z,89.10
2022-11-05T12:06:03.089Z,89.40
2022-11-05T12:10:17.820Z,89.10
2022-11-05T12:14:09.350Z,89.30
2022-11-05T12:18:16.014Z,89.60
2022-11-05T12:21:57.750Z,89.10
2022-11-05T12:26:14.081Z,88.80
2022-11-05T12:30:16.157Z,89.10
2022-11-05T12:34:01.900Z,88.90
2022-11-05T12:37:59.021Z,89.10
2022-11-05T12:41:49.870Z,89.40
2022-11-05T12:45:34.661Z,89.50
2022-11-05T12:49:19.103Z,89.70
2022-11-05T12:53:37.390Z,89.80
2022-11-05T12:57:19.072Z,90.10
2022-11-05T13:01:23.456Z,89.70
2022-11-05T13:05:21.800Z,90.00
2022-11-05T13:09:10.665Z,90.20
2022-11-05T13:13:13.778Z,90.10
2022-11-05T13:17:18.617Z,90.30
2022-11-05T13:21:00.452Z,90.20
2022-11-05T13:24:55.224Z,90.10
2022-11-05T13:28:46.991Z,90.30
2022-11-05T13:32:31.681Z,90.30
2022-11-05T13:36:39.983Z,90.30
2022-11-05T13:40:25.544Z,90.40
2022-11-05T13:44:33.844Z,90.30
2022-11-05T13:48:35.903Z,90.40
2022-11-05T13:52:41.737Z,90.30
2022-11-05T13:56:34.079Z,90.40
2022-11-05T14:00:20.205Z,90.40
2022-11-05T14:04:03.172Z,90.30
2022-11-05T14:07:45.610Z,90.40
2022-11-05T14:11:36.268Z,90.50
2022-11-05T14:15:26.206Z,90.70
2022-11-05T14:19:20.174Z,90.60
2022-11-05T14:23:25.204Z,90.70
2022-11-05T14:27:06.940Z,90.40
2022-11-05T14:30:48.924Z,90.40
2022-11-05T14:34:42.521Z,90.40
2022-11-05T14:38:26.028Z,90.70
2022-11-05T14:42:27.963Z,90.60
2022-11-05T14:46:09.712Z,90.80
2022-11-05T14:50:19.081Z,90.70
2022-11-05T14:54:42.021Z,90.80
2022-11-05T14:58:26.832Z,91.00
2022-11-05T15:02:13.369Z,90.80
2022-11-05T15:06:22.788Z,90.90
2022-11-05T15:10:16.792Z,91.00
2022-11-05T15:14:24.528Z,91.00
2022-11-05T15:18:33.371Z,91.00
2022-11-05T15:22:38.267Z,91.00
2022-11-05T15:26:51.301Z,91.10
2022-11-05T15:30:33.059Z,91.10
2022-11-05T15:34:32.351Z,90.90
2022-11-05T15:38:56.568Z,91.40
2022-11-05T15:42:46.284Z,91.10
2022-11-05T15:46:28.453Z,91.10
2022-11-05T15:50:14.884Z,91.10
2022-11-05T15:58:06.325Z,91.10
2022-11-05T16:02:02.091Z,91.10
2022-11-05T16:05:45.022Z,91.20
2022-11-05T16:09:28.530Z,91.10
2022-11-05T16:13:38.088Z,91.20
2022-11-05T16:17:21.673Z,91.20
2022-11-05T16:21:18.561Z,91.10
2022-11-05T16:25:00.236Z,91.30
2022-11-05T16:28:41.908Z,91.20
2022-11-05T16:32:31.058Z,91.30
2022-11-05T16:36:13.194Z,91.40
2022-11-05T16:39:55.317Z,91.20
2022-11-05T16:43:37.108Z,91.20
2022-11-05T16:47:19.348Z,91.60
2022-11-05T16:51:02.245Z,91.30
2022-11-05T16:54:44.034Z,91.20
2022-11-05T16:58:26.005Z,91.20
2022-11-05T17:02:11.092Z,91.20
2022-11-05T17:05:52.814Z,91.30
2022-11-05T17:09:34.517Z,91.20
2022-11-05T17:13:18.260Z,91.20
2022-11-05T17:17:00.268Z,91.30
2022-11-05T17:20:52.982Z,91.20
2022-11-05T17:24:34.956Z,91.30
2022-11-05T17:28:17.136Z,91.20
2022-11-05T17:31:59.283Z,91.20
2022-11-05T17:35:41.551Z,91.20
2022-11-05T17:39:28.692Z,91.30
2022-11-05T17:43:13.695Z,91.30
2022-11-05T17:46:55.671Z,91.30
2022-11-05T17:50:44.295Z,91.40
2022-11-05T17:54:26.000Z,91.50
2022-11-05T17:58:07.665Z,91.40
2022-11-05T18:01:49.706Z,91.40
2022-11-05T18:05:31.484Z,91.50
2022-11-05T18:09:13.957Z,91.40
2022-11-05T18:12:56.969Z,91.50
2022-11-05T18:16:38.666Z,91.50
2022-11-05T18:20:20.485Z,91.50
2022-11-05T18:24:06.977Z,91.60
2022-11-05T18:27:48.650Z,91.70
2022-11-05T18:31:30.712Z,91.70
2022-11-05T18:35:13.489Z,91.70
2022-11-05T18:38:57.108Z,91.60
2022-11-05T18:42:39.147Z,92.00
2022-11-05T18:46:51.069Z,91.70
2022-11-05T18:50:22.496Z,91.70
2022-11-05T18:54:04.560Z,91.70
2022-11-05T18:57:46.227Z,91.70
2022-11-05T19:01:28.488Z,91.70
2022-11-05T19:09:12.475Z,91.60
2022-11-05T19:12:54.438Z,91.50
2022-11-05T19:16:36.848Z,91.50
2022-11-05T19:20:18.538Z,91.50
2022-11-05T19:24:01.772Z,91.50
2022-11-05T19:27:43.719Z,91.50
2022-11-05T19:31:25.720Z,91.50
2022-11-05T19:35:07.763Z,91.40
2022-11-05T19:38:53.252Z,91.40
2022-11-05T19:42:35.011Z,91.40
2022-11-05T19:46:18.534Z,91.40
2022-11-05T19:50:00.202Z,91.30
2022-11-05T19:53:42.208Z,91.20
2022-11-05T19:57:23.881Z,91.10
2022-11-05T20:01:06.833Z,91.10
2022-11-05T20:04:50.632Z,91.10
2022-11-05T20:08:32.592Z,91.10
2022-11-05T20:12:15.825Z,90.90
2022-11-05T20:15:57.673Z,90.90
2022-11-05T20:19:39.346Z,90.80
2022-11-05T20:23:21.323Z,90.70
2022-11-05T20:27:03.017Z,90.90
2022-11-05T20:30:44.867Z,90.80
2022-11-05T20:34:28.098Z,90.80
2022-11-05T20:38:10.170Z,90.60
2022-11-05T20:41:53.368Z,90.50
2022-11-05T20:45:35.060Z,90.50
2022-11-05T20:49:21.240Z,90.50
2022-11-05T20:53:05.912Z,90.50
2022-11-05T20:56:47.566Z,90.40
2022-11-05T21:00:29.234Z,90.50
2022-11-05T21:04:11.211Z,90.50
2022-11-05T21:07:53.094Z,90.60
2022-11-05T21:11:54.468Z,90.60
2022-11-05T21:15:36.207Z,90.50
2022-11-05T21:19:18.004Z,90.50
2022-11-05T21:23:00.074Z,90.50
2022-11-05T21:26:41.858Z,90.40
2022-11-05T21:30:23.714Z,90.30
2022-11-05T21:34:06.624Z,90.40
2022-11-05T21:37:48.360Z,90.40
2022-11-05T21:41:30.237Z,90.30
2022-11-05T21:45:11.912Z,90.30
2022-11-05T21:48:53.636Z,90.40
2022-11-05T21:52:54.334Z,90.40
2022-11-05T21:56:54.490Z,90.30
2022-11-05T22:00:36.136Z,90.30
2022-11-05T22:04:17.888Z,90.20
2022-11-05T22:07:59.822Z,90.30
2022-11-05T22:11:41.706Z,90.30
2022-11-05T22:15:23.405Z,90.30
2022-11-05T22:19:05.065Z,90.20
2022-11-05T22:22:48.060Z,90.20
2022-11-05T22:26:29.760Z,90.20
2022-11-05T22:30:12.168Z,90.20
2022-11-05T22:33:54.156Z,90.20
2022-11-05T22:37:35.819Z,90.00
2022-11-05T22:41:20.486Z,90.00
2022-11-05T22:45:02.165Z,90.00
2022-11-05T22:48:43.984Z,89.80
2022-11-05T22:52:26.820Z,89.80
2022-11-05T22:56:14.661Z,90.00
2022-11-05T22:59:56.328Z,90.00
2022-11-05T23:03:38.619Z,90.00
2022-11-05T23:07:38.941Z,90.00
2022-11-05T23:11:38.569Z,90.10
2022-11-05T23:15:40.480Z,90.50
2022-11-05T23:19:42.587Z,90.20
2022-11-05T23:23:42.723Z,90.10
2022-11-05T23:27:24.448Z,90.00
2022-11-05T23:31:27.467Z,90.10
2022-11-05T23:35:09.509Z,90.10
2022-11-05T23:38:51.191Z,90.00
2022-11-05T23:42:51.731Z,90.10
2022-11-05T23:46:51.792Z,90.20
2022-11-05T23:50:38.529Z,90.10
2022-11-05T23:54:22.459Z,89.40
2022-11-05T23:58:04.280Z,89.30
